Virtual United States Air Force

 METAR AND TAF INFORMATION
METAR FOR KHRT
ADDS - METARS form results

(0055 UTC 18 February 2020)
Data provider http://aviationweather.gov/metar/data/
 
METAR text: KHRT 180041Z AUTO 07003KT 10SM OVC005 17/16 A3006 RMK AO2 RAE07RAB25E26RAB27E41 SLP181 $
Conditions at: KHRT (HURLBURT FIELD , FL, US) observed 0041 UTC 18 February 2020
Temperature: 17.0°C (63°F)
Dewpoint: 16.0°C (61°F) [RH = 94%]
Pressure (altimeter): 30.06 inches Hg (1018.0 mb)
[Sea-level pressure: 1018.1 mb]
Winds: from the ENE (70 degrees) at 3 MPH (3 knots; 1.5 m/s)
Visibility: 10 or more miles (16+ km)
Ceiling: 500 feet AGL
Clouds: overcast cloud deck at 500 feet AGL
Weather:
SOME DATA ABOVE MAY BE INACCURATE!!!
"$" is an indication the sensor requires maintenance

METAR text: KHRT 180027Z AUTO 10004KT 10SM -RA BKN006 BKN014 17/16 A3006 RMK AO2 RAE07RAB25E26RAB27 CIG 006V008 SLP181 $
Conditions at: KHRT (HURLBURT FIELD , FL, US) observed 0027 UTC 18 February 2020
Temperature: 17.0°C (63°F)
Dewpoint: 16.0°C (61°F) [RH = 94%]
Pressure (altimeter): 30.06 inches Hg (1018.0 mb)
[Sea-level pressure: 1018.1 mb]
Winds: from the E (100 degrees) at 5 MPH (4 knots; 2.1 m/s)
Visibility: 10 or more miles (16+ km)
Ceiling: 600 feet AGL
Clouds: broken clouds at 600 feet AGL
broken clouds at 1400 feet AGL
Weather: -RA  (light rain)
SOME DATA ABOVE MAY BE INACCURATE!!!
"$" is an indication the sensor requires maintenance

METAR text: KHRT 180026Z AUTO 10004KT 10SM BKN006 BKN014 17/16 A3006 RMK AO2 RAE07RAB25E26 CIG 006V014 SLP181 $
Conditions at: KHRT (HURLBURT FIELD , FL, US) observed 0026 UTC 18 February 2020
Temperature: 17.0°C (63°F)
Dewpoint: 16.0°C (61°F) [RH = 94%]
Pressure (altimeter): 30.06 inches Hg (1018.0 mb)
[Sea-level pressure: 1018.1 mb]
Winds: from the E (100 degrees) at 5 MPH (4 knots; 2.1 m/s)
Visibility: 10 or more miles (16+ km)
Ceiling: 600 feet AGL
Clouds: broken clouds at 600 feet AGL
broken clouds at 1400 feet AGL
Weather:
SOME DATA ABOVE MAY BE INACCURATE!!!
"$" is an indication the sensor requires maintenance

METAR text: KHRT 180025Z AUTO 10004KT 10SM -RA BKN008 BKN014 17/16 A3006 RMK AO2 RAE07RAB25 CIG 008V014 SLP181 $
Conditions at: KHRT (HURLBURT FIELD , FL, US) observed 0025 UTC 18 February 2020
Temperature: 17.0°C (63°F)
Dewpoint: 16.0°C (61°F) [RH = 94%]
Pressure (altimeter): 30.06 inches Hg (1018.0 mb)
[Sea-level pressure: 1018.1 mb]
Winds: from the E (100 degrees) at 5 MPH (4 knots; 2.1 m/s)
Visibility: 10 or more miles (16+ km)
Ceiling: 800 feet AGL
Clouds: broken clouds at 800 feet AGL
broken clouds at 1400 feet AGL
Weather: -RA  (light rain)
SOME DATA ABOVE MAY BE INACCURATE!!!
"$" is an indication the sensor requires maintenance

METAR text: KHRT 180022Z AUTO 09003KT 10SM BKN008 BKN014 17/16 A3006 RMK AO2 RAE07 CIG 008V014 SLP181 $
Conditions at: KHRT (HURLBURT FIELD , FL, US) observed 0022 UTC 18 February 2020
Temperature: 17.0°C (63°F)
Dewpoint: 16.0°C (61°F) [RH = 94%]
Pressure (altimeter): 30.06 inches Hg (1018.0 mb)
[Sea-level pressure: 1018.1 mb]
Winds: from the E (90 degrees) at 3 MPH (3 knots; 1.5 m/s)
Visibility: 10 or more miles (16+ km)
Ceiling: 800 feet AGL
Clouds: broken clouds at 800 feet AGL
broken clouds at 1400 feet AGL
Weather:
SOME DATA ABOVE MAY BE INACCURATE!!!
"$" is an indication the sensor requires maintenance

METAR text: KHRT 180007Z AUTO 09004KT 10SM SCT009 BKN014 17/16 A3005 RMK AO2 RAE07 CIG 009V014 SLP178 $
Conditions at: KHRT (HURLBURT FIELD , FL, US) observed 0007 UTC 18 February 2020
Temperature: 17.0°C (63°F)
Dewpoint: 16.0°C (61°F) [RH = 94%]
Pressure (altimeter): 30.05 inches Hg (1017.7 mb)
[Sea-level pressure: 1017.8 mb]
Winds: from the E (90 degrees) at 5 MPH (4 knots; 2.1 m/s)
Visibility: 10 or more miles (16+ km)
Ceiling: 1400 feet AGL
Clouds: scattered clouds at 900 feet AGL
broken clouds at 1400 feet AGL
Weather:
SOME DATA ABOVE MAY BE INACCURATE!!!
"$" is an indication the sensor requires maintenance

METAR text: KHRT 180001Z AUTO 09005KT 10SM -RA BKN009 BKN075 17/16 A3005 RMK AO2 CIG 009V075 SLP178 $
Conditions at: KHRT (HURLBURT FIELD , FL, US) observed 0001 UTC 18 February 2020
Temperature: 17.0°C (63°F)
Dewpoint: 16.0°C (61°F) [RH = 94%]
Pressure (altimeter): 30.05 inches Hg (1017.7 mb)
[Sea-level pressure: 1017.8 mb]
Winds: from the E (90 degrees) at 6 MPH (5 knots; 2.6 m/s)
Visibility: 10 or more miles (16+ km)
Ceiling: 900 feet AGL
Clouds: broken clouds at 900 feet AGL
broken clouds at 7500 feet AGL
Weather: -RA  (light rain)
SOME DATA ABOVE MAY BE INACCURATE!!!
"$" is an indication the sensor requires maintenance

METAR text: KHRT 172356Z AUTO 08004KT 10SM -RA SCT010 BKN055 BKN075 17/16 A3005 RMK AO2 SLP178 P0000 60000 T01730155 10183 20170 50007 $
Conditions at: KHRT (HURLBURT FIELD , FL, US) observed 2356 UTC 17 February 2020
Temperature: 17.3°C (63°F)
Dewpoint: 15.5°C (60°F) [RH = 89%]
Pressure (altimeter): 30.05 inches Hg (1017.7 mb)
[Sea-level pressure: 1017.8 mb]
Winds: from the E (80 degrees) at 5 MPH (4 knots; 2.1 m/s)
Visibility: 10 or more miles (16+ km)
Ceiling: 5500 feet AGL
Clouds: scattered clouds at 1000 feet AGL
broken clouds at 5500 feet AGL
broken clouds at 7500 feet AGL
Weather: -RA  (light rain)
SOME DATA ABOVE MAY BE INACCURATE!!!
"$" is an indication the sensor requires maintenance

 AIRPORT MAP

 RUNWAY INFORMATION
Runway 18 Runway length 9600 ft Runway width 150 ft
Runway elevation 33 ft Runway displaced threshold 0 ft Runway heading 176
Runway 36 Runway length 9600 ft Runway width 150 ft
Runway elevation 35 ft Runway displaced threshold 0 ft Runway heading 356

 AIRPORT FREQUENCIES
Type APP Name EGLIN APP Frequency 37.915 MHZ
Type APP Name EGLIN APP Frequency 133 MHZ
Type ATIS Name ATIS Frequency 36.067 MHZ
Type DEP Name EGLIN DEP Frequency 132.1 MHZ
Type GND Name GND Frequency 123.975 MHZ
Type PMSV Name PMSV METRO Frequency 39.075 MHZ
Type POST Name COMD POST Frequency 140.4 MHZ
Type PTD Name PTD Frequency 37.22 MHZ
Type TWR Name TWR Frequency 126.5 MHZ

 AIRPORT NEAR NAVIGATION AIDS


Neither the Department of the Air Force, nor any other component of the Department of Defense or Federal Government has approved, endorsed, or authorized this promotion, activity, or organization. Virtual United States Air Force organization is in no way affiliated with the Department of Defense, Department of the Air Force, or any other federal or government entity. Virtual United States Air Force is a group of flight simulation enthusiasts with the common interest of promoting enjoyment and cameraderie through the simulation of military operations and procedures utilizing several flight simulation platforms.

Copyright © vUSAF, LLC // 2018 All Rights Reserved